createdAt,value
2022-10-11T00:02:06.397Z,2.65
2022-10-11T00:04:33.064Z,1.88
2022-10-11T00:06:59.779Z,1.58
2022-10-11T00:09:26.541Z,1.60
2022-10-11T00:11:56.102Z,2.03
2022-10-11T00:14:23.961Z,2.15
2022-10-11T00:16:50.688Z,1.85
2022-10-11T00:19:17.809Z,1.65
2022-10-11T00:21:44.663Z,2.10
2022-10-11T00:24:12.455Z,1.83
2022-10-11T00:26:43.214Z,1.13
2022-10-11T00:29:12.829Z,1.85
2022-10-11T00:31:39.953Z,1.35
2022-10-11T00:34:07.941Z,1.77
2022-10-11T00:36:34.762Z,1.50
2022-10-11T00:39:01.492Z,1.63
2022-10-11T00:41:28.145Z,2.00
2022-10-11T00:44:19.861Z,1.85
2022-10-11T00:46:56.042Z,1.67
2022-10-11T00:49:40.929Z,1.98
2022-10-11T00:52:32.676Z,1.38
2022-10-11T00:55:28.264Z,2.03
2022-10-11T00:57:56.564Z,2.03
2022-10-11T01:00:23.219Z,1.98
2022-10-11T01:02:50.730Z,1.48
2022-10-11T01:05:29.179Z,2.33
2022-10-11T01:07:57.692Z,1.40
2022-10-11T01:10:24.551Z,2.10
2022-10-11T01:13:08.680Z,2.15
2022-10-11T01:15:58.636Z,2.05
2022-10-11T01:18:42.547Z,1.63
2022-10-11T01:21:36.821Z,2.13
2022-10-11T01:24:20.222Z,1.50
2022-10-11T01:27:19.277Z,1.60
2022-10-11T01:29:49.412Z,1.73
2022-10-11T01:32:27.775Z,1.70
2022-10-11T01:35:07.422Z,1.98
2022-10-11T01:37:41.075Z,1.73
2022-10-11T01:40:23.399Z,2.33
2022-10-11T01:42:50.548Z,2.00
2022-10-11T01:45:19.701Z,1.55
2022-10-11T01:47:46.428Z,1.30
2022-10-11T01:50:46.079Z,1.85
2022-10-11T01:53:38.656Z,1.70
2022-10-11T01:56:17.643Z,1.90
2022-10-11T01:58:57.377Z,2.58
2022-10-11T02:01:32.781Z,1.95
2022-10-11T02:04:24.498Z,1.60
2022-10-11T02:06:59.803Z,1.55
2022-10-11T02:09:29.293Z,1.60
2022-10-11T02:12:02.245Z,1.90
2022-10-11T02:14:35.319Z,1.50
2022-10-11T02:17:13.943Z,1.60
2022-10-11T02:19:47.653Z,2.17
2022-10-11T02:22:24.540Z,1.60
2022-10-11T02:24:56.227Z,1.67
2022-10-11T02:27:27.224Z,1.42
2022-10-11T02:29:55.439Z,2.10
2022-10-11T02:32:24.421Z,1.80
2022-10-11T02:34:57.487Z,2.10
2022-10-11T02:37:37.249Z,1.90
2022-10-11T02:40:19.074Z,1.17
2022-10-11T02:42:59.243Z,1.27
2022-10-11T02:45:34.620Z,1.40
2022-10-11T02:48:01.573Z,1.30
2022-10-11T02:50:28.331Z,1.45
2022-10-11T02:52:55.046Z,1.65
2022-10-11T02:55:21.703Z,1.80
2022-10-11T02:57:48.428Z,1.63
2022-10-11T03:00:15.366Z,2.00
2022-10-11T03:02:42.088Z,1.65
2022-10-11T03:05:09.055Z,1.73
2022-10-11T03:07:35.815Z,1.67
2022-10-11T03:10:02.940Z,1.52
2022-10-11T03:12:29.686Z,2.13
2022-10-11T03:14:56.372Z,1.55
2022-10-11T03:17:36.238Z,1.83
2022-10-11T03:22:30.524Z,1.30
2022-10-11T03:25:02.511Z,2.00
2022-10-11T03:27:30.721Z,1.50
2022-10-11T03:29:57.772Z,2.00
2022-10-11T03:32:24.624Z,2.65
2022-10-11T03:34:51.286Z,3.10
2022-10-11T03:37:18.291Z,2.25
2022-10-11T03:39:45.776Z,2.88
2022-10-11T03:42:13.049Z,2.80
2022-10-11T03:44:39.743Z,3.08
2022-10-11T03:47:06.408Z,3.50
2022-10-11T03:49:33.143Z,2.97
2022-10-11T03:51:59.788Z,3.28
2022-10-11T03:54:26.741Z,3.60
2022-10-11T03:56:53.568Z,3.35
2022-10-11T03:59:20.255Z,3.13
2022-10-11T04:01:46.980Z,4.43
2022-10-11T04:04:13.722Z,5.95
2022-10-11T04:06:40.405Z,5.03
2022-10-11T04:09:07.180Z,3.63
2022-10-11T04:11:33.852Z,5.38
2022-10-11T04:14:00.593Z,4.10
2022-10-11T04:16:27.255Z,4.25
2022-10-11T04:18:53.910Z,3.95
2022-10-11T04:21:20.621Z,3.67
2022-10-11T04:23:47.303Z,3.70
2022-10-11T04:26:14.060Z,2.90
2022-10-11T04:28:40.806Z,3.67
2022-10-11T04:31:08.010Z,3.80
2022-10-11T04:33:34.670Z,3.28
2022-10-11T04:36:01.620Z,2.80
2022-10-11T04:38:28.571Z,3.25
2022-10-11T04:40:55.638Z,3.33
2022-10-11T04:43:22.444Z,3.40
2022-10-11T04:46:03.202Z,3.97
2022-10-11T04:48:30.110Z,3.45
2022-10-11T04:50:56.850Z,3.80
2022-10-11T04:53:23.689Z,2.90
2022-10-11T04:55:58.849Z,3.90
2022-10-11T04:58:25.520Z,3.30
2022-10-11T05:00:52.164Z,3.20
2022-10-11T05:03:18.859Z,3.25
2022-10-11T05:05:45.520Z,3.70
2022-10-11T05:08:12.609Z,3.70
2022-10-11T05:10:39.261Z,3.78
2022-10-11T05:13:05.930Z,4.18
2022-10-11T05:15:32.650Z,3.30
2022-10-11T05:17:59.297Z,3.63
2022-10-11T05:20:26.122Z,3.80
2022-10-11T05:22:52.941Z,3.70
2022-10-11T05:25:19.637Z,3.53
2022-10-11T05:27:46.283Z,3.10
2022-10-11T05:30:13.142Z,3.30
2022-10-11T05:32:39.768Z,3.05
2022-10-11T05:35:07.098Z,3.55
2022-10-11T05:37:33.893Z,3.88
2022-10-11T05:40:00.597Z,3.30
2022-10-11T05:42:27.321Z,3.25
2022-10-11T05:44:53.976Z,3.53
2022-10-11T05:47:20.627Z,3.33
2022-10-11T05:49:47.242Z,3.88
2022-10-11T05:52:14.024Z,3.90
2022-10-11T05:54:40.746Z,3.55
2022-10-11T05:57:07.405Z,3.42
2022-10-11T05:59:35.261Z,3.17
2022-10-11T06:02:02.154Z,3.08
2022-10-11T06:04:28.882Z,2.60
2022-10-11T06:06:55.535Z,3.45
2022-10-11T06:09:22.205Z,3.22
2022-10-11T06:11:48.916Z,3.55
2022-10-11T06:14:15.572Z,3.65
2022-10-11T06:16:42.201Z,2.83
2022-10-11T06:19:08.915Z,2.60
2022-10-11T06:21:35.667Z,2.80
2022-10-11T06:24:02.589Z,3.17
2022-10-11T06:26:29.561Z,3.47
2022-10-11T06:28:56.846Z,3.70
2022-10-11T06:31:23.648Z,3.95
2022-10-11T06:33:50.275Z,3.53
2022-10-11T06:36:17.473Z,3.00
2022-10-11T06:38:45.484Z,3.90
2022-10-11T06:41:13.496Z,4.47
2022-10-11T06:43:40.226Z,4.55
2022-10-11T06:46:07.585Z,4.15
2022-10-11T06:48:34.987Z,4.10
2022-10-11T06:51:01.801Z,4.30
2022-10-11T06:53:28.605Z,3.92
2022-10-11T06:56:05.603Z,4.22
2022-10-11T06:58:33.117Z,3.50
2022-10-11T07:01:05.362Z,4.18
2022-10-11T07:03:32.361Z,4.13
2022-10-11T07:06:04.208Z,4.65
2022-10-11T07:08:31.173Z,4.30
2022-10-11T07:11:06.606Z,4.82
2022-10-11T07:13:33.335Z,4.80
2022-10-11T07:16:04.845Z,4.70
2022-10-11T07:18:32.216Z,3.55
2022-10-11T07:21:02.066Z,3.53
2022-10-11T07:23:28.705Z,4.13
2022-10-11T07:25:55.452Z,4.75
2022-10-11T07:28:22.679Z,3.92
2022-10-11T07:30:49.737Z,4.53
2022-10-11T07:33:16.540Z,4.78
2022-10-11T07:35:48.271Z,4.63
2022-10-11T07:38:16.212Z,5.50
2022-10-11T07:40:44.661Z,4.38
2022-10-11T07:43:12.268Z,5.28
2022-10-11T07:45:40.209Z,4.68
2022-10-11T07:48:06.972Z,5.78
2022-10-11T07:50:34.635Z,6.30
2022-10-11T07:53:01.326Z,6.03
2022-10-11T07:55:29.933Z,5.85
2022-10-11T07:57:57.660Z,6.57
2022-10-11T08:00:24.466Z,6.38
2022-10-11T08:02:51.125Z,6.05
2022-10-11T08:05:17.917Z,5.95
2022-10-11T08:07:44.754Z,5.82
2022-10-11T08:10:11.575Z,5.57
2022-10-11T08:12:38.335Z,6.05
2022-10-11T08:15:05.486Z,6.45
2022-10-11T08:17:32.135Z,6.78
2022-10-11T08:19:58.802Z,7.10
2022-10-11T08:22:25.596Z,8.32
2022-10-11T08:24:52.306Z,7.60
2022-10-11T08:27:19.142Z,7.32
2022-10-11T08:29:45.800Z,7.07
2022-10-11T08:32:12.561Z,7.45
2022-10-11T08:34:39.242Z,8.43
2022-10-11T08:37:05.892Z,7.75
2022-10-11T08:39:32.588Z,7.57
2022-10-11T08:42:08.216Z,8.18
2022-10-11T08:45:09.454Z,7.68
2022-10-11T08:47:44.010Z,8.10
2022-10-11T08:50:23.443Z,8.68
2022-10-11T08:53:01.712Z,7.33
2022-10-11T08:56:10.708Z,7.00
2022-10-11T08:58:45.051Z,6.85
2022-10-11T09:01:20.647Z,6.82
2022-10-11T09:03:48.754Z,7.32
2022-10-11T09:06:24.976Z,7.32
2022-10-11T09:09:13.439Z,8.05
2022-10-11T09:11:55.286Z,8.13
2022-10-11T09:14:44.021Z,8.93
2022-10-11T09:17:39.652Z,8.13
2022-10-11T09:20:32.259Z,10.30
2022-10-11T09:23:17.659Z,9.25
2022-10-11T09:25:58.554Z,8.27
2022-10-11T09:28:50.957Z,8.60
2022-10-11T09:31:17.982Z,8.02
2022-10-11T09:33:48.334Z,8.93
2022-10-11T09:39:31.522Z,7.95
2022-10-11T09:42:07.828Z,7.18
2022-10-11T09:44:39.853Z,8.07
2022-10-11T09:47:10.617Z,7.88
2022-10-11T09:49:50.787Z,7.47
2022-10-11T09:52:22.993Z,8.43
2022-10-11T09:54:56.169Z,6.93
2022-10-11T09:57:37.225Z,8.52
2022-10-11T10:00:07.017Z,9.77
2022-10-11T10:02:46.846Z,11.30
2022-10-11T10:05:21.110Z,10.77
2022-10-11T10:08:23.558Z,12.43
2022-10-11T10:10:59.460Z,13.68
2022-10-11T10:13:51.087Z,13.68
2022-10-11T10:16:29.630Z,12.63
2022-10-11T10:19:05.136Z,12.93
2022-10-11T10:21:34.858Z,13.10
2022-10-11T10:24:05.776Z,12.82
2022-10-11T10:26:33.382Z,14.15
2022-10-11T10:29:00.104Z,14.10
2022-10-11T10:32:13.408Z,12.73
2022-10-11T10:34:37.832Z,13.52
2022-10-11T10:37:14.385Z,13.13
2022-10-11T10:39:56.683Z,13.20
2022-10-11T10:42:23.468Z,15.45
2022-10-11T10:44:56.915Z,13.75
2022-10-11T10:47:55.400Z,14.13
2022-10-11T10:50:52.409Z,14.25
2022-10-11T10:53:27.563Z,14.57
2022-10-11T10:56:10.881Z,14.98
2022-10-11T10:59:14.956Z,16.00
2022-10-11T11:02:21.409Z,16.02
2022-10-11T11:05:01.549Z,16.40
2022-10-11T11:07:45.849Z,17.30
2022-10-11T11:10:25.321Z,15.88
2022-10-11T11:13:22.705Z,16.90
2022-10-11T11:16:13.967Z,16.75
2022-10-11T11:18:43.602Z,15.50
2022-10-11T11:21:24.930Z,15.38
2022-10-11T11:24:16.366Z,15.50
2022-10-11T11:27:04.347Z,16.20
2022-10-11T11:29:55.848Z,16.25
2022-10-11T11:32:31.572Z,16.48
2022-10-11T11:35:09.238Z,17.83
2022-10-11T11:37:40.190Z,17.17
2022-10-11T11:40:16.869Z,16.45
2022-10-11T11:42:48.397Z,16.90
2022-10-11T11:45:26.118Z,17.00
2022-10-11T11:48:20.641Z,15.80
2022-10-11T11:51:11.445Z,16.17
2022-10-11T11:54:02.403Z,18.30
2022-10-11T11:56:47.481Z,18.30
2022-10-11T11:59:52.439Z,18.40
2022-10-11T12:02:33.530Z,17.13
2022-10-11T12:05:00.880Z,17.77
2022-10-11T12:07:29.167Z,18.75
2022-10-11T12:10:23.951Z,16.77
2022-10-11T12:13:10.168Z,17.63
2022-10-11T12:15:37.179Z,17.23
2022-10-11T12:18:13.268Z,17.65
2022-10-11T12:20:41.711Z,16.52
2022-10-11T12:23:52.237Z,13.52
2022-10-11T12:26:27.881Z,12.02
2022-10-11T12:29:27.346Z,11.70
2022-10-11T12:34:34.402Z,12.35
2022-10-11T12:37:22.070Z,14.00
2022-10-11T12:39:59.172Z,14.90
2022-10-11T12:42:36.862Z,15.20
2022-10-11T12:45:31.568Z,12.57
2022-10-11T12:48:17.399Z,12.57
2022-10-11T12:50:51.446Z,12.18
2022-10-11T12:53:33.025Z,11.50
2022-10-11T12:56:37.620Z,11.52
2022-10-11T12:59:06.575Z,11.70
2022-10-11T13:01:47.571Z,12.13
2022-10-11T13:04:18.758Z,13.45
2022-10-11T13:06:53.472Z,14.77
2022-10-11T13:09:33.685Z,13.88
2022-10-11T13:12:17.962Z,15.77
2022-10-11T13:14:47.943Z,15.65
2022-10-11T13:17:24.559Z,14.63
2022-10-11T13:20:00.175Z,15.07
2022-10-11T13:22:27.254Z,14.68
2022-10-11T13:25:00.545Z,13.73
2022-10-11T13:27:27.820Z,13.75
2022-10-11T13:29:59.380Z,13.43
2022-10-11T13:32:29.850Z,13.65
2022-10-11T13:35:07.122Z,13.93
2022-10-11T13:37:46.644Z,12.57
2022-10-11T13:40:16.226Z,14.13
2022-10-11T13:42:43.568Z,13.15
2022-10-11T13:45:16.219Z,12.60
2022-10-11T13:47:43.089Z,12.13
2022-10-11T13:50:15.771Z,11.95
2022-10-11T13:53:19.833Z,12.57
2022-10-11T13:55:55.949Z,12.48
2022-10-11T13:58:28.821Z,11.40
2022-10-11T14:01:02.047Z,11.25
2022-10-11T14:03:43.175Z,11.57
2022-10-11T14:06:10.447Z,11.65
2022-10-11T14:08:41.533Z,11.68
2022-10-11T14:11:10.541Z,11.18
2022-10-11T14:13:40.876Z,11.60
2022-10-11T14:18:39.108Z,13.82
2022-10-11T14:21:31.326Z,12.45
2022-10-11T14:24:02.758Z,12.57
2022-10-11T14:26:49.731Z,12.02
2022-10-11T14:29:27.233Z,9.70
2022-10-11T14:32:01.252Z,9.93
2022-10-11T14:34:28.842Z,9.60
2022-10-11T14:36:55.507Z,9.63
2022-10-11T14:39:24.317Z,8.07
2022-10-11T14:41:52.249Z,8.13
2022-10-11T14:44:19.728Z,7.50
2022-10-11T14:46:48.541Z,7.65
2022-10-11T14:49:18.527Z,7.78
2022-10-11T14:51:48.000Z,7.50
2022-10-11T14:54:16.065Z,8.10
2022-10-11T14:56:42.728Z,7.35
2022-10-11T14:59:16.313Z,7.65
2022-10-11T15:01:43.261Z,7.00
2022-10-11T15:04:09.962Z,6.35
2022-10-11T15:06:39.749Z,6.13
2022-10-11T15:09:07.531Z,6.93
2022-10-11T15:11:36.372Z,7.03
2022-10-11T15:14:03.717Z,7.05
2022-10-11T15:16:30.566Z,7.47
2022-10-11T15:18:57.888Z,7.95
2022-10-11T15:21:27.145Z,8.80
2022-10-11T15:23:55.365Z,8.18
2022-10-11T15:26:28.110Z,9.27
2022-10-11T15:28:56.646Z,10.20
2022-10-11T15:31:23.950Z,8.70
2022-10-11T15:33:50.976Z,9.13
2022-10-11T15:36:20.756Z,7.90
2022-10-11T15:38:48.833Z,8.35
2022-10-11T15:41:17.192Z,6.47
2022-10-11T15:43:45.081Z,7.53
2022-10-11T15:46:15.111Z,6.13
2022-10-11T15:48:41.824Z,7.53
2022-10-11T15:51:08.593Z,7.35
2022-10-11T15:53:35.707Z,6.35
2022-10-11T15:56:05.642Z,7.68
2022-10-11T15:58:36.235Z,5.90
2022-10-11T16:01:20.882Z,6.40
2022-10-11T16:03:49.052Z,6.18
2022-10-11T16:06:16.742Z,6.10
2022-10-11T16:08:43.514Z,6.80
2022-10-11T16:11:11.526Z,6.32
2022-10-11T16:13:38.258Z,6.57
2022-10-11T16:16:07.135Z,5.95
2022-10-11T16:18:36.095Z,6.05
2022-10-11T16:21:08.866Z,7.05
2022-10-11T16:23:36.233Z,6.20
2022-10-11T16:26:05.739Z,6.05
2022-10-11T16:28:33.274Z,6.43
2022-10-11T16:31:00.459Z,6.43
2022-10-11T16:33:27.139Z,6.28
2022-10-11T16:35:53.787Z,6.15
2022-10-11T16:38:20.482Z,7.00
2022-10-11T16:40:47.165Z,6.70
2022-10-11T16:43:13.873Z,7.22
2022-10-11T16:45:40.508Z,7.55
2022-10-11T16:48:07.283Z,7.38
2022-10-11T16:50:38.471Z,7.88
2022-10-11T16:53:06.256Z,6.75
2022-10-11T16:55:32.972Z,12.75
2022-10-11T16:57:59.781Z,8.80
2022-10-11T17:00:26.491Z,7.28
2022-10-11T17:02:53.213Z,7.88
2022-10-11T17:05:19.840Z,7.80
2022-10-11T17:07:46.512Z,6.53
2022-10-11T17:10:13.302Z,7.25
2022-10-11T17:12:40.129Z,6.95
2022-10-11T17:15:07.625Z,6.97
2022-10-11T17:17:34.332Z,6.13
2022-10-11T17:20:02.341Z,6.28
2022-10-11T17:22:29.263Z,7.03
2022-10-11T17:24:55.918Z,7.45
2022-10-11T17:27:22.770Z,7.40
2022-10-11T17:29:49.409Z,7.80
2022-10-11T17:32:16.077Z,7.18
2022-10-11T17:34:42.734Z,7.32
2022-10-11T17:37:10.091Z,7.90
2022-10-11T17:39:36.780Z,7.32
2022-10-11T17:42:07.277Z,7.68
2022-10-11T17:44:34.916Z,9.48
2022-10-11T17:47:02.580Z,7.60
2022-10-11T17:49:29.306Z,7.13
2022-10-11T17:51:56.680Z,8.43
2022-10-11T17:54:23.624Z,8.80
2022-10-11T17:56:50.329Z,8.23
2022-10-11T17:59:21.211Z,8.65
2022-10-11T18:01:49.756Z,8.48
2022-10-11T18:04:19.528Z,8.90
2022-10-11T18:06:47.678Z,8.27
2022-10-11T18:09:16.274Z,8.93
2022-10-11T18:11:43.128Z,8.68
2022-10-11T18:14:10.071Z,9.00
2022-10-11T18:16:38.338Z,8.77
2022-10-11T18:19:08.171Z,8.90
2022-10-11T18:21:35.178Z,9.32
2022-10-11T18:24:04.446Z,9.20
2022-10-11T18:26:31.297Z,9.55
2022-10-11T18:28:58.950Z,9.65
2022-10-11T18:31:27.807Z,9.30
2022-10-11T18:33:55.110Z,9.40
2022-10-11T18:36:24.978Z,10.05
2022-10-11T18:38:57.866Z,9.52
2022-10-11T18:41:30.710Z,8.88
2022-10-11T18:44:01.125Z,9.48
2022-10-11T18:48:56.576Z,8.82
2022-10-11T18:51:29.235Z,8.35
2022-10-11T18:53:58.605Z,7.97
2022-10-11T18:56:26.903Z,7.90
2022-10-11T18:58:55.430Z,8.00
2022-10-11T19:01:25.002Z,8.25
2022-10-11T19:03:56.428Z,8.38
2022-10-11T19:06:26.304Z,8.10
2022-10-11T19:08:55.728Z,8.50
2022-10-11T19:11:25.070Z,7.63
2022-10-11T19:14:03.407Z,9.02
2022-10-11T19:16:30.522Z,8.27
2022-10-11T19:18:58.435Z,8.27
2022-10-11T19:21:25.909Z,8.60
2022-10-11T19:23:54.477Z,8.25
2022-10-11T19:26:24.371Z,8.43
2022-10-11T19:29:02.850Z,8.20
2022-10-11T19:31:33.033Z,8.93
2022-10-11T19:33:59.768Z,9.45
2022-10-11T19:36:27.088Z,7.78
2022-10-11T19:38:57.736Z,8.73
2022-10-11T19:41:25.535Z,9.48
2022-10-11T19:43:52.348Z,8.63
2022-10-11T19:46:44.467Z,8.23
2022-10-11T19:49:08.477Z,7.82
2022-10-11T19:51:35.565Z,9.82
2022-10-11T19:54:21.790Z,9.10
2022-10-11T19:56:48.732Z,9.23
2022-10-11T19:59:16.006Z,9.27
2022-10-11T20:01:45.519Z,9.00
2022-10-11T20:04:27.775Z,9.80
2022-10-11T20:07:01.312Z,9.25
2022-10-11T20:09:29.936Z,8.60
2022-10-11T20:11:57.576Z,9.10
2022-10-11T20:14:24.577Z,9.63
2022-10-11T20:16:51.489Z,9.45
2022-10-11T20:19:18.546Z,9.13
2022-10-11T20:21:45.421Z,8.98
2022-10-11T20:24:12.301Z,8.38
2022-10-11T20:26:39.363Z,9.32
2022-10-11T20:29:06.807Z,10.07
2022-10-11T20:31:38.031Z,8.27
2022-10-11T20:34:07.080Z,8.75
2022-10-11T20:36:36.147Z,10.00
2022-10-11T20:39:04.112Z,8.27
2022-10-11T20:41:34.119Z,9.23
2022-10-11T20:44:02.019Z,9.23
2022-10-11T20:46:39.151Z,8.88
2022-10-11T20:49:08.834Z,9.88
2022-10-11T20:51:37.721Z,9.52
2022-10-11T20:54:04.937Z,10.77
2022-10-11T20:56:31.927Z,9.85
2022-10-11T20:58:59.157Z,10.00
2022-10-11T21:01:29.074Z,9.82
2022-10-11T21:03:58.618Z,9.80
2022-10-11T21:06:25.967Z,10.32
2022-10-11T21:08:55.215Z,10.60
2022-10-11T21:11:24.466Z,9.88
2022-10-11T21:13:57.923Z,11.00
2022-10-11T21:16:25.032Z,10.48
2022-10-11T21:18:53.495Z,10.02
2022-10-11T21:21:21.226Z,9.60
2022-10-11T21:23:48.008Z,11.00
2022-10-11T21:26:18.270Z,10.18
2022-10-11T21:28:46.393Z,10.55
2022-10-11T21:31:15.233Z,11.02
2022-10-11T21:33:42.917Z,13.00
2022-10-11T21:36:16.423Z,12.88
2022-10-11T21:38:43.438Z,13.05
2022-10-11T21:41:19.287Z,13.70
2022-10-11T21:43:47.250Z,12.80
2022-10-11T21:46:22.740Z,13.88
2022-10-11T21:48:50.211Z,13.30
2022-10-11T21:51:26.014Z,13.10
2022-10-11T21:53:53.637Z,12.93
2022-10-11T21:56:20.251Z,12.52
2022-10-11T21:58:48.323Z,12.52
2022-10-11T22:01:15.122Z,12.70
2022-10-11T22:03:42.001Z,11.15
2022-10-11T22:06:08.826Z,11.57
2022-10-11T22:08:35.894Z,12.45
2022-10-11T22:11:02.548Z,12.00
2022-10-11T22:13:31.095Z,13.18
2022-10-11T22:16:01.007Z,12.63
2022-10-11T22:18:32.232Z,12.45
2022-10-11T22:21:06.260Z,12.25
2022-10-11T22:23:33.526Z,12.80
2022-10-11T22:26:08.370Z,12.52
2022-10-11T22:28:36.319Z,12.27
2022-10-11T22:31:05.994Z,12.98
2022-10-11T22:33:32.882Z,13.02
2022-10-11T22:36:02.024Z,12.93
2022-10-11T22:38:29.098Z,13.10
2022-10-11T22:40:58.537Z,11.65
2022-10-11T22:43:25.164Z,13.57
2022-10-11T22:45:51.838Z,12.77
2022-10-11T22:48:18.621Z,12.45
2022-10-11T22:50:45.310Z,12.32
2022-10-11T22:53:13.784Z,11.90
2022-10-11T22:55:40.458Z,12.18
2022-10-11T22:58:07.204Z,11.68
2022-10-11T23:00:34.186Z,11.63
2022-10-11T23:03:00.928Z,11.25
2022-10-11T23:05:27.577Z,11.15
2022-10-11T23:07:54.390Z,10.93
2022-10-11T23:10:21.115Z,11.63
2022-10-11T23:12:47.807Z,11.88
2022-10-11T23:15:15.313Z,11.77
2022-10-11T23:17:42.543Z,11.75
2022-10-11T23:20:09.922Z,12.52
2022-10-11T23:22:36.726Z,11.65
2022-10-11T23:25:03.684Z,11.50
2022-10-11T23:27:30.913Z,11.73
2022-10-11T23:29:57.577Z,11.38
2022-10-11T23:32:24.512Z,11.85
2022-10-11T23:34:51.599Z,12.45
2022-10-11T23:37:18.309Z,12.38
2022-10-11T23:39:45.226Z,11.98
2022-10-11T23:42:11.869Z,13.55
2022-10-11T23:44:38.500Z,12.73
2022-10-11T23:47:05.163Z,13.15
2022-10-11T23:49:31.880Z,11.80
2022-10-11T23:51:58.500Z,12.73
2022-10-11T23:54:25.153Z,13.38
2022-10-11T23:56:51.800Z,12.38
2022-10-11T23:59:18.442Z,12.48
